Time;durP1;ratioP1;P1;durP2;ratioP2;P2;SDS_P1;SDS_P2;PMS_P1;PMS_P2;Temp;Humidity;BMP_temperature;BMP_pressure;BME280_temperature;BME280_humidity;BME280_pressure;Samples;Min_cycle;Max_cycle;Signal;HPM_P1;HPM_P2
2024/01/10 00:02:14;;;;;;;20.20;10.50;;;;;;;;;;5070422;28;20250;-79
2024/01/10 00:05:00;;;;;;;24.35;11.38;;;;;;;;;;5062104;28;20315;-79
2024/01/10 00:07:45;;;;;;;20.65;10.38;;;;;;;;;;5070670;28;20043;-81
2024/01/10 00:10:30;;;;;;;21.40;10.15;;;;;;;;;;5073049;28;20425;-80
2024/01/10 00:13:15;;;;;;;19.25;10.18;;;;;;;;;;5072485;28;20020;-80
2024/01/10 00:16:01;;;;;;;19.70;10.55;;;;;;;;;;5066174;28;20486;-79
2024/01/10 00:18:46;;;;;;;24.83;9.82;;;;;;;;;;5070131;28;20039;-81
2024/01/10 00:21:31;;;;;;;23.58;10.50;;;;;;;;;;5071338;28;20063;-81
2024/01/10 00:24:16;;;;;;;21.35;10.32;;;;;;;;;;5064834;28;20024;-80
2024/01/10 00:27:02;;;;;;;20.08;9.95;;;;;;;;;;5065827;28;20035;-80
2024/01/10 00:29:51;;;;;;;21.27;9.43;;;;;;;;;;5071127;28;20124;-80
2024/01/10 00:32:36;;;;;;;19.80;10.77;;;;;;;;;;5073122;28;20035;-80
2024/01/10 00:35:22;;;;;;;19.50;9.35;;;;;;;;;;5067630;28;20043;-80
2024/01/10 00:38:07;;;;;;;23.17;10.75;;;;;;;;;;5070218;28;20054;-80
2024/01/10 00:40:52;;;;;;;21.85;9.85;;;;;;;;;;5070543;28;20475;-80
2024/01/10 00:43:37;;;;;;;24.75;10.93;;;;;;;;;;5054279;28;20161;-80
2024/01/10 00:46:23;;;;;;;22.27;9.93;;;;;;;;;;5072387;28;20020;-80
2024/01/10 00:49:08;;;;;;;24.40;11.48;;;;;;;;;;5072968;28;20059;-79
2024/01/10 00:51:53;;;;;;;20.83;10.07;;;;;;;;;;5059186;28;20134;-80
2024/01/10 00:54:39;;;;;;;24.13;11.07;;;;;;;;;;5069244;28;20028;-80
2024/01/10 00:57:24;;;;;;;19.08;9.68;;;;;;;;;;5057722;28;20035;-80
2024/01/10 01:00:10;;;;;;;20.70;10.02;;;;;;;;;;5066684;28;20060;-80
2024/01/10 01:02:55;;;;;;;19.67;9.13;;;;;;;;;;5055526;28;20024;-79
2024/01/10 01:05:41;;;;;;;22.65;10.52;;;;;;;;;;5072059;28;20032;-80
2024/01/10 01:08:26;;;;;;;22.40;10.43;;;;;;;;;;5067378;28;20039;-80
2024/01/10 01:11:14;;;;;;;20.77;10.30;;;;;;;;;;5063858;28;20052;-79
2024/01/10 01:13:59;;;;;;;23.20;11.15;;;;;;;;;;5065046;28;20111;-79
2024/01/10 01:16:44;;;;;;;19.17;10.02;;;;;;;;;;5071428;28;20077;-79
2024/01/10 01:19:29;;;;;;;19.88;9.35;;;;;;;;;;5069030;28;20032;-79
2024/01/10 01:22:15;;;;;;;24.35;10.07;;;;;;;;;;5083040;28;20067;-82
2024/01/10 01:25:00;;;;;;;18.20;9.10;;;;;;;;;;5069273;28;20581;-79
2024/01/10 01:27:45;;;;;;;20.65;9.85;;;;;;;;;;5071640;28;20028;-80
2024/01/10 01:30:31;;;;;;;19.50;9.45;;;;;;;;;;5079073;28;20061;-81
2024/01/10 01:33:16;;;;;;;15.13;8.32;;;;;;;;;;5075432;28;20047;-81
2024/01/10 01:36:01;;;;;;;20.98;9.73;;;;;;;;;;5067171;28;20116;-80
2024/01/10 01:38:46;;;;;;;21.27;9.10;;;;;;;;;;5064582;28;20219;-81
2024/01/10 01:41:32;;;;;;;20.55;9.30;;;;;;;;;;5062859;28;20032;-80
2024/01/10 01:44:17;;;;;;;20.58;9.00;;;;;;;;;;5065719;28;20029;-80
2024/01/10 01:47:02;;;;;;;25.25;11.68;;;;;;;;;;5075956;28;20509;-81
2024/01/10 01:49:48;;;;;;;19.17;10.02;;;;;;;;;;5064687;28;20024;-80
2024/01/10 01:52:34;;;;;;;17.95;8.48;;;;;;;;;;5065216;28;20024;-81
2024/01/10 01:55:19;;;;;;;15.90;7.82;;;;;;;;;;5066144;28;20485;-80
2024/01/10 01:58:05;;;;;;;21.30;10.20;;;;;;;;;;5071195;28;20123;-80
2024/01/10 02:00:51;;;;;;;16.75;8.25;;;;;;;;;;5070348;28;20119;-80
2024/01/10 02:03:36;;;;;;;19.35;9.30;;;;;;;;;;5068050;28;20020;-80
2024/01/10 02:06:22;;;;;;;20.20;9.05;;;;;;;;;;5067001;28;20103;-80
2024/01/10 02:09:08;;;;;;;18.95;9.07;;;;;;;;;;5084539;28;20035;-80
2024/01/10 02:11:53;;;;;;;19.58;9.57;;;;;;;;;;5064607;28;20020;-80
2024/01/10 02:14:39;;;;;;;23.88;9.68;;;;;;;;;;5067319;28;20036;-80
2024/01/10 02:17:24;;;;;;;23.42;10.23;;;;;;;;;;5065438;28;20032;-80
2024/01/10 02:20:13;;;;;;;20.60;10.00;;;;;;;;;;5077194;28;20032;-80
2024/01/10 02:22:58;;;;;;;16.42;8.18;;;;;;;;;;5067365;28;20028;-79
2024/01/10 02:25:43;;;;;;;18.58;10.20;;;;;;;;;;5064933;28;20029;-80
2024/01/10 02:28:29;;;;;;;22.23;9.50;;;;;;;;;;5070095;28;20024;-80
2024/01/10 02:31:14;;;;;;;21.02;10.68;;;;;;;;;;5069184;28;20028;-80
2024/01/10 02:33:59;;;;;;;18.75;9.07;;;;;;;;;;5095091;28;20029;-78
2024/01/10 02:36:45;;;;;;;23.58;10.05;;;;;;;;;;5094167;28;20071;-81
2024/01/10 02:39:30;;;;;;;23.75;9.75;;;;;;;;;;5083473;28;20024;-77
2024/01/10 02:42:15;;;;;;;17.73;8.40;;;;;;;;;;5082134;28;20319;-78
2024/01/10 02:44:59;;;;;;;19.17;9.57;;;;;;;;;;5096449;28;20560;-81
2024/01/10 02:47:44;;;;;;;17.52;8.65;;;;;;;;;;5089130;28;20559;-81
2024/01/10 02:50:30;;;;;;;18.55;8.20;;;;;;;;;;5094300;28;20095;-81
2024/01/10 02:53:15;;;;;;;20.58;10.00;;;;;;;;;;5104965;28;20030;-80
2024/01/10 02:56:01;;;;;;;18.58;9.30;;;;;;;;;;5074156;28;20020;-80
2024/01/10 02:58:46;;;;;;;20.67;9.23;;;;;;;;;;5078020;28;20036;-80
2024/01/10 03:01:32;;;;;;;23.08;8.95;;;;;;;;;;5058688;28;20032;-81
2024/01/10 03:04:18;;;;;;;19.98;9.55;;;;;;;;;;5068527;28;20485;-80
2024/01/10 03:07:03;;;;;;;22.25;9.68;;;;;;;;;;5069426;28;20024;-80
2024/01/10 03:09:48;;;;;;;19.50;9.82;;;;;;;;;;5069537;28;20017;-80
2024/01/10 03:12:36;;;;;;;20.92;9.43;;;;;;;;;;5071122;28;20107;-80
2024/01/10 03:15:22;;;;;;;18.65;9.32;;;;;;;;;;5067600;28;20013;-80
2024/01/10 03:18:07;;;;;;;20.77;8.85;;;;;;;;;;5070682;28;20143;-79
2024/01/10 03:20:52;;;;;;;20.30;10.10;;;;;;;;;;5067053;28;20040;-80
2024/01/10 03:23:38;;;;;;;18.83;9.32;;;;;;;;;;5084164;28;20316;-80
2024/01/10 03:26:23;;;;;;;17.98;9.57;;;;;;;;;;5061115;28;20029;-80
2024/01/10 03:29:08;;;;;;;20.70;9.95;;;;;;;;;;5067589;28;20115;-80
2024/01/10 03:31:57;;;;;;;22.08;9.52;;;;;;;;;;5070479;28;20364;-80
2024/01/10 03:34:42;;;;;;;20.75;9.50;;;;;;;;;;5070933;28;20028;-79
2024/01/10 03:37:27;;;;;;;18.77;9.63;;;;;;;;;;5069752;28;20025;-78
2024/01/10 03:40:13;;;;;;;20.55;9.80;;;;;;;;;;5069031;28;20029;-80
2024/01/10 03:42:58;;;;;;;16.83;8.85;;;;;;;;;;5072255;28;20028;-79
2024/01/10 03:45:44;;;;;;;19.38;10.07;;;;;;;;;;5065368;28;20040;-79
2024/01/10 03:48:31;;;;;;;21.45;9.38;;;;;;;;;;5053545;28;20036;-79
2024/01/10 03:51:17;;;;;;;19.00;9.35;;;;;;;;;;5069617;28;20029;-80
2024/01/10 03:54:03;;;;;;;22.80;9.00;;;;;;;;;;5082878;28;20479;-81
2024/01/10 03:56:48;;;;;;;20.90;9.60;;;;;;;;;;5067112;28;20036;-80
2024/01/10 03:59:33;;;;;;;20.90;9.00;;;;;;;;;;5066557;28;20111;-79
2024/01/10 04:02:18;;;;;;;21.25;10.73;;;;;;;;;;5058525;28;20489;-80
2024/01/10 04:05:09;;;;;;;24.95;10.48;;;;;;;;;;5061577;28;20503;-82
2024/01/10 04:07:56;;;;;;;20.10;9.85;;;;;;;;;;5056314;28;20032;-80
2024/01/10 04:10:41;;;;;;;18.60;9.65;;;;;;;;;;5050255;28;20024;-81
2024/01/10 04:13:27;;;;;;;20.65;11.05;;;;;;;;;;5063655;28;20021;-80
2024/01/10 04:16:13;;;;;;;19.98;9.75;;;;;;;;;;5046384;28;20033;-80
2024/01/10 04:18:58;;;;;;;21.23;9.88;;;;;;;;;;5056163;28;20020;-80
2024/01/10 04:21:43;;;;;;;23.45;10.75;;;;;;;;;;5063125;28;20024;-80
2024/01/10 04:24:28;;;;;;;19.90;9.38;;;;;;;;;;5056063;28;20877;-80
2024/01/10 04:27:14;;;;;;;16.20;8.75;;;;;;;;;;5061101;28;20033;-81
2024/01/10 04:29:59;;;;;;;19.33;10.85;;;;;;;;;;5075074;28;20118;-80
2024/01/10 04:32:44;;;;;;;20.45;9.00;;;;;;;;;;5059981;28;20112;-79
2024/01/10 04:35:30;;;;;;;19.20;10.27;;;;;;;;;;5057840;28;20384;-79
2024/01/10 04:38:15;;;;;;;22.58;10.23;;;;;;;;;;5069370;28;20028;-79
2024/01/10 04:41:00;;;;;;;20.60;10.80;;;;;;;;;;5060424;28;20070;-79
2024/01/10 04:43:46;;;;;;;17.60;9.27;;;;;;;;;;5076386;28;20099;-79
2024/01/10 04:46:31;;;;;;;21.42;10.32;;;;;;;;;;5059963;28;20123;-79
2024/01/10 04:49:16;;;;;;;18.77;9.40;;;;;;;;;;5039841;28;20070;-79
2024/01/10 04:52:02;;;;;;;20.67;10.18;;;;;;;;;;5061382;28;20105;-79
2024/01/10 04:54:47;;;;;;;20.85;9.90;;;;;;;;;;5064092;28;20036;-79
2024/01/10 04:57:32;;;;;;;18.45;8.93;;;;;;;;;;5054837;28;20540;-79
2024/01/10 05:00:17;;;;;;;17.25;9.10;;;;;;;;;;5058777;28;20115;-80
2024/01/10 05:03:03;;;;;;;22.27;10.05;;;;;;;;;;5054765;28;20059;-79
2024/01/10 05:05:48;;;;;;;20.92;10.57;;;;;;;;;;5058841;28;20024;-81
2024/01/10 05:08:33;;;;;;;22.85;10.10;;;;;;;;;;5056053;28;20032;-80
2024/01/10 05:11:18;;;;;;;19.45;9.82;;;;;;;;;;5055059;28;20031;-81
2024/01/10 05:14:04;;;;;;;22.13;10.35;;;;;;;;;;5058763;28;20455;-81
2024/01/10 05:16:49;;;;;;;23.30;10.48;;;;;;;;;;5054760;28;20035;-81
2024/01/10 05:19:34;;;;;;;22.20;10.48;;;;;;;;;;5055536;28;20126;-81
2024/01/10 05:22:21;;;;;;;22.33;10.13;;;;;;;;;;5043883;28;20017;-81
2024/01/10 05:25:07;;;;;;;18.55;9.77;;;;;;;;;;5062413;28;20099;-81
2024/01/10 05:27:52;;;;;;;18.55;10.38;;;;;;;;;;5056609;28;20035;-81
2024/01/10 05:30:37;;;;;;;22.33;10.38;;;;;;;;;;5054451;28;20462;-81
2024/01/10 05:33:22;;;;;;;22.58;9.80;;;;;;;;;;5062704;28;20027;-81
2024/01/10 05:36:11;;;;;;;19.75;10.02;;;;;;;;;;5062070;28;20044;-79
2024/01/10 05:38:56;;;;;;;24.63;11.60;;;;;;;;;;5058858;28;20036;-80
2024/01/10 05:41:43;;;;;;;20.45;10.02;;;;;;;;;;5057476;28;20190;-80
2024/01/10 05:44:29;;;;;;;26.90;12.90;;;;;;;;;;5067702;28;20032;-79
2024/01/10 05:47:14;;;;;;;23.00;11.43;;;;;;;;;;5051097;28;20394;-79
2024/01/10 05:50:00;;;;;;;23.48;11.57;;;;;;;;;;5064818;28;20028;-79
2024/01/10 05:52:45;;;;;;;24.10;10.25;;;;;;;;;;5053702;28;20017;-79
2024/01/10 05:55:30;;;;;;;22.13;10.95;;;;;;;;;;5075903;28;20032;-78
2024/01/10 05:58:15;;;;;;;22.33;11.13;;;;;;;;;;5054456;28;20020;-80
2024/01/10 06:01:01;;;;;;;21.95;11.75;;;;;;;;;;5079663;28;20107;-79
2024/01/10 06:03:46;;;;;;;26.00;11.85;;;;;;;;;;5083277;28;20453;-80
2024/01/10 06:06:32;;;;;;;21.88;11.45;;;;;;;;;;5088761;28;20020;-80
2024/01/10 06:09:21;;;;;;;22.02;10.43;;;;;;;;;;5080167;28;20138;-80
2024/01/10 06:12:06;;;;;;;18.33;10.25;;;;;;;;;;5083116;28;20098;-86
2024/01/10 06:14:52;;;;;;;29.73;11.32;;;;;;;;;;5090547;28;20489;-84
2024/01/10 06:17:38;;;;;;;30.45;12.40;;;;;;;;;;5082105;28;20036;-80
2024/01/10 06:20:26;;;;;;;22.23;10.90;;;;;;;;;;5080188;28;20092;-83
2024/01/10 06:23:11;;;;;;;25.85;11.52;;;;;;;;;;5099367;28;20525;-84
2024/01/10 06:25:56;;;;;;;25.25;12.18;;;;;;;;;;5079123;28;20107;-84
2024/01/10 06:28:42;;;;;;;21.27;11.85;;;;;;;;;;5076255;28;20043;-84
2024/01/10 06:31:27;;;;;;;22.38;11.38;;;;;;;;;;5080169;28;20030;-82
2024/01/10 06:34:13;;;;;;;27.63;11.57;;;;;;;;;;5084776;28;20718;-83
2024/01/10 06:36:58;;;;;;;25.70;12.52;;;;;;;;;;5095471;28;20031;-82
2024/01/10 06:39:43;;;;;;;23.08;10.38;;;;;;;;;;5070600;28;20028;-82
2024/01/10 06:42:29;;;;;;;25.88;11.25;;;;;;;;;;5067986;28;20115;-83
2024/01/10 06:45:14;;;;;;;23.40;11.60;;;;;;;;;;5100307;28;20647;-84
2024/01/10 06:47:59;;;;;;;24.17;10.32;;;;;;;;;;5083033;28;20085;-84
2024/01/10 06:50:45;;;;;;;24.70;11.35;;;;;;;;;;5094834;28;20027;-86
2024/01/10 06:53:30;;;;;;;23.67;12.00;;;;;;;;;;5081675;28;20396;-84
2024/01/10 06:56:15;;;;;;;25.13;13.23;;;;;;;;;;5086219;28;20031;-83
2024/01/10 06:59:01;;;;;;;26.88;12.60;;;;;;;;;;5080976;28;20520;-85
2024/01/10 07:01:50;;;;;;;27.35;11.63;;;;;;;;;;5083299;28;20107;-85
2024/01/10 07:04:39;;;;;;;25.90;12.20;;;;;;;;;;5091019;28;20064;-82
2024/01/10 07:07:24;;;;;;;21.20;10.97;;;;;;;;;;5096226;28;20024;-84
2024/01/10 07:10:10;;;;;;;18.55;10.23;;;;;;;;;;5080165;28;20259;-81
2024/01/10 07:12:55;;;;;;;27.17;12.35;;;;;;;;;;5088782;28;20031;-81
2024/01/10 07:15:41;;;;;;;21.70;11.40;;;;;;;;;;5081814;28;20132;-82
2024/01/10 07:18:26;;;;;;;22.75;11.48;;;;;;;;;;5076440;28;20032;-82
2024/01/10 07:21:11;;;;;;;24.80;13.60;;;;;;;;;;5078814;28;20421;-81
2024/01/10 07:23:57;;;;;;;22.48;9.65;;;;;;;;;;5085669;28;20075;-82
2024/01/10 07:26:42;;;;;;;25.60;12.38;;;;;;;;;;5078666;28;20149;-81
2024/01/10 07:29:27;;;;;;;22.25;11.25;;;;;;;;;;5083252;28;20473;-82
2024/01/10 07:32:13;;;;;;;23.75;13.13;;;;;;;;;;5080833;28;20113;-82
2024/01/10 07:34:58;;;;;;;22.77;11.65;;;;;;;;;;5074864;28;20099;-81
2024/01/10 07:37:44;;;;;;;21.40;11.23;;;;;;;;;;5080047;28;20032;-81
2024/01/10 07:40:29;;;;;;;26.92;12.00;;;;;;;;;;5078713;28;20072;-81
2024/01/10 07:43:14;;;;;;;25.63;12.02;;;;;;;;;;5101977;28;20397;-84
2024/01/10 07:46:01;;;;;;;30.75;13.13;;;;;;;;;;5093711;28;20056;-82
2024/01/10 07:48:49;;;;;;;23.92;11.63;;;;;;;;;;5090600;28;20114;-83
2024/01/10 07:51:34;;;;;;;26.10;12.52;;;;;;;;;;5084373;28;20036;-83
2024/01/10 07:54:19;;;;;;;25.40;11.65;;;;;;;;;;5081547;28;20028;-84
2024/01/10 07:57:06;;;;;;;27.33;11.93;;;;;;;;;;5079408;28;20027;-83
2024/01/10 07:59:51;;;;;;;27.10;12.30;;;;;;;;;;5087267;28;20118;-83
2024/01/10 08:02:37;;;;;;;21.80;12.00;;;;;;;;;;5086370;28;20361;-83
2024/01/10 08:05:23;;;;;;;21.83;10.05;;;;;;;;;;5088608;28;20516;-84
2024/01/10 08:08:09;;;;;;;27.88;12.00;;;;;;;;;;5104735;28;20561;-84
2024/01/10 08:10:57;;;;;;;27.13;12.40;;;;;;;;;;5093601;28;20103;-84
2024/01/10 08:13:42;;;;;;;31.13;13.15;;;;;;;;;;5095106;28;20078;-84
2024/01/10 08:16:27;;;;;;;26.50;11.85;;;;;;;;;;5077514;28;20015;-84
2024/01/10 08:19:13;;;;;;;26.80;12.20;;;;;;;;;;5082898;28;20024;-83
2024/01/10 08:21:58;;;;;;;23.63;12.20;;;;;;;;;;5090552;28;20019;-83
2024/01/10 08:24:44;;;;;;;26.33;12.05;;;;;;;;;;5092454;28;20034;-81
2024/01/10 08:27:29;;;;;;;24.58;12.18;;;;;;;;;;5084620;28;20107;-82
2024/01/10 08:30:15;;;;;;;28.20;14.18;;;;;;;;;;5081388;28;20024;-84
2024/01/10 08:33:00;;;;;;;24.20;12.77;;;;;;;;;;5086456;28;20035;-83
2024/01/10 08:35:45;;;;;;;23.20;11.93;;;;;;;;;;5090310;28;20381;-83
2024/01/10 08:38:31;;;;;;;28.48;13.98;;;;;;;;;;5080453;28;20474;-82
2024/01/10 08:41:16;;;;;;;27.73;12.32;;;;;;;;;;5087588;28;20039;-84
2024/01/10 08:44:02;;;;;;;27.75;12.75;;;;;;;;;;5091333;28;20019;-85
2024/01/10 08:46:48;;;;;;;26.73;14.52;;;;;;;;;;5080432;28;20027;-84
2024/01/10 08:49:33;;;;;;;23.90;12.00;;;;;;;;;;5082840;28;20023;-85
2024/01/10 08:52:18;;;;;;;27.20;12.77;;;;;;;;;;5088261;28;20390;-84
2024/01/10 08:55:07;;;;;;;26.98;12.98;;;;;;;;;;5083802;28;20051;-85
2024/01/10 08:57:52;;;;;;;24.90;11.65;;;;;;;;;;5089418;28;20042;-83
2024/01/10 09:00:38;;;;;;;28.88;12.82;;;;;;;;;;5088100;28;20036;-83
2024/01/10 09:03:23;;;;;;;24.27;12.13;;;;;;;;;;5075734;28;20982;-88
2024/01/10 09:06:08;;;;;;;26.33;12.68;;;;;;;;;;5087940;28;20429;-85
2024/01/10 09:08:54;;;;;;;26.05;12.52;;;;;;;;;;5085639;28;20031;-84
2024/01/10 09:11:39;;;;;;;21.35;11.45;;;;;;;;;;5087839;28;20034;-84
2024/01/10 09:14:24;;;;;;;30.08;13.82;;;;;;;;;;5084814;28;20063;-84
2024/01/10 09:17:10;;;;;;;24.80;12.85;;;;;;;;;;5085361;28;20039;-84
2024/01/10 09:19:57;;;;;;;22.38;11.50;;;;;;;;;;5079686;28;20040;-84
2024/01/10 09:22:42;;;;;;;27.23;13.07;;;;;;;;;;5083799;28;20027;-85
2024/01/10 09:25:28;;;;;;;27.08;14.02;;;;;;;;;;5091954;28;20054;-83
2024/01/10 09:28:13;;;;;;;27.52;12.18;;;;;;;;;;5090336;28;20049;-84
2024/01/10 09:30:58;;;;;;;28.38;13.32;;;;;;;;;;5089971;28;20423;-83
2024/01/10 09:33:44;;;;;;;25.83;12.50;;;;;;;;;;5080958;28;20118;-85
2024/01/10 09:36:29;;;;;;;28.17;12.95;;;;;;;;;;5093059;28;20099;-84
2024/01/10 09:39:16;;;;;;;26.40;13.75;;;;;;;;;;5079761;28;20027;-83
2024/01/10 09:42:01;;;;;;;29.67;13.73;;;;;;;;;;5081636;28;20378;-84
2024/01/10 09:44:47;;;;;;;32.05;16.15;;;;;;;;;;5081454;28;20207;-84
2024/01/10 09:47:32;;;;;;;28.05;14.00;;;;;;;;;;5086863;28;20031;-85
2024/01/10 09:50:17;;;;;;;28.20;13.80;;;;;;;;;;5082432;28;20025;-83
2024/01/10 09:53:08;;;;;;;28.83;15.45;;;;;;;;;;5092972;28;20019;-82
2024/01/10 09:55:56;;;;;;;27.42;13.52;;;;;;;;;;5086436;28;20024;-82
2024/01/10 09:58:45;;;;;;;30.48;13.80;;;;;;;;;;5080988;28;20100;-80
2024/01/10 10:01:31;;;;;;;27.33;12.50;;;;;;;;;;5087589;28;20869;-78
2024/01/10 10:04:17;;;;;;;28.63;15.32;;;;;;;;;;5082511;28;20554;-82
2024/01/10 10:07:03;;;;;;;29.10;14.85;;;;;;;;;;5090091;28;20056;-82
2024/01/10 10:09:48;;;;;;;33.10;15.57;;;;;;;;;;5082394;28;20567;-83
2024/01/10 10:12:52;;;;;;;33.33;15.70;;;;;;;;;;5079853;28;20385;-83
2024/01/10 10:15:37;;;;;;;34.00;15.73;;;;;;;;;;5084442;28;20115;-83
2024/01/10 10:18:22;;;;;;;30.42;15.38;;;;;;;;;;5083270;28;20074;-84
2024/01/10 10:21:08;;;;;;;31.42;16.38;;;;;;;;;;5088459;28;20691;-83
2024/01/10 10:23:58;;;;;;;31.88;16.02;;;;;;;;;;5092217;28;20111;-83
2024/01/10 10:26:43;;;;;;;29.70;14.93;;;;;;;;;;5093250;28;20031;-84
2024/01/10 10:29:29;;;;;;;32.75;17.75;;;;;;;;;;5082679;28;20036;-84
2024/01/10 10:32:15;;;;;;;30.33;17.55;;;;;;;;;;5080864;28;20051;-84
2024/01/10 10:35:00;;;;;;;34.88;17.63;;;;;;;;;;5083277;28;20046;-84
2024/01/10 10:37:50;;;;;;;32.92;16.85;;;;;;;;;;5088402;28;20119;-84
2024/01/10 10:40:36;;;;;;;32.67;18.02;;;;;;;;;;5086506;28;20405;-85
2024/01/10 10:43:21;;;;;;;32.83;16.60;;;;;;;;;;5085957;28;20039;-87
2024/01/10 10:46:12;;;;;;;33.00;16.40;;;;;;;;;;5104902;28;20035;-90
2024/01/10 10:49:00;;;;;;;34.25;17.23;;;;;;;;;;5112954;28;20019;-88
2024/01/10 10:51:45;;;;;;;34.05;17.73;;;;;;;;;;5117271;28;20018;-89
2024/01/10 10:54:33;;;;;;;36.28;18.55;;;;;;;;;;5111546;28;20066;-90
2024/01/10 10:57:17;;;;;;;34.13;18.20;;;;;;;;;;5126925;28;20027;-89
2024/01/10 11:00:21;;;;;;;34.42;17.40;;;;;;;;;;5073645;28;20101;-87
2024/01/10 11:03:10;;;;;;;32.80;17.25;;;;;;;;;;5065568;28;20028;-88
2024/01/10 11:05:56;;;;;;;30.98;16.25;;;;;;;;;;5059448;28;20025;-88
2024/01/10 11:08:46;;;;;;;33.75;16.73;;;;;;;;;;5059242;28;20558;-88
2024/01/10 11:11:38;;;;;;;34.03;17.42;;;;;;;;;;5065634;28;20565;-86
2024/01/10 11:14:29;;;;;;;30.17;16.63;;;;;;;;;;5062028;28;20055;-88
2024/01/10 11:17:43;;;;;;;39.88;18.23;;;;;;;;;;5072022;28;20433;-85
2024/01/10 11:20:47;;;;;;;29.67;16.85;;;;;;;;;;5065028;28;20176;-83
2024/01/10 11:23:46;;;;;;;33.40;17.90;;;;;;;;;;5056959;28;20032;-87
2024/01/10 11:26:31;;;;;;;32.95;17.38;;;;;;;;;;5068719;28;20068;-88
2024/01/10 11:29:17;;;;;;;33.80;18.60;;;;;;;;;;5058313;28;20437;-84
2024/01/10 11:32:04;;;;;;;31.08;16.67;;;;;;;;;;5067913;28;20073;-86
2024/01/10 11:34:58;;;;;;;31.58;17.95;;;;;;;;;;5065778;28;20028;-83
2024/01/10 11:37:44;;;;;;;29.27;16.70;;;;;;;;;;5067072;28;20029;-84
2024/01/10 11:41:02;;;;;;;29.00;16.95;;;;;;;;;;5055374;28;20033;-90
2024/01/10 11:44:23;;;;;;;32.72;17.60;;;;;;;;;;5043518;28;20101;-90
2024/01/10 11:47:09;;;;;;;36.65;18.90;;;;;;;;;;5065057;28;20045;-90
2024/01/10 11:49:58;;;;;;;34.53;18.40;;;;;;;;;;5062802;28;20012;-88
2024/01/10 11:52:43;;;;;;;29.23;17.52;;;;;;;;;;5077392;28;20032;-90
2024/01/10 11:55:51;;;;;;;33.97;19.25;;;;;;;;;;5065852;28;20035;-87
2024/01/10 11:59:16;;;;;;;33.50;17.67;;;;;;;;;;5057579;28;20039;-88
2024/01/10 12:02:03;;;;;;;36.85;18.10;;;;;;;;;;5040674;28;20048;-83
2024/01/10 12:04:49;;;;;;;38.25;20.95;;;;;;;;;;5031667;28;20435;-82
2024/01/10 12:07:34;;;;;;;35.05;18.67;;;;;;;;;;5076275;28;20028;-81
2024/01/10 12:10:19;;;;;;;33.72;18.13;;;;;;;;;;5102504;28;20032;-83
2024/01/10 12:13:04;;;;;;;32.28;18.77;;;;;;;;;;5089658;28;20421;-83
2024/01/10 12:15:50;;;;;;;33.95;20.95;;;;;;;;;;5085121;28;20378;-81
2024/01/10 12:18:35;;;;;;;36.35;18.45;;;;;;;;;;5082706;28;20050;-82
2024/01/10 12:21:21;;;;;;;35.35;18.75;;;;;;;;;;5085610;28;20035;-82
2024/01/10 12:24:06;;;;;;;38.25;18.85;;;;;;;;;;5071018;28;20015;-83
2024/01/10 12:26:52;;;;;;;32.65;18.20;;;;;;;;;;5089876;28;20090;-83
2024/01/10 12:29:39;;;;;;;31.65;17.80;;;;;;;;;;5090116;28;20038;-81
2024/01/10 12:32:25;;;;;;;36.10;20.08;;;;;;;;;;5086986;28;20031;-81
2024/01/10 12:35:10;;;;;;;39.60;19.45;;;;;;;;;;5086109;28;20036;-81
2024/01/10 12:37:55;;;;;;;35.53;18.50;;;;;;;;;;5090184;28;20019;-86
2024/01/10 12:40:41;;;;;;;36.75;19.88;;;;;;;;;;5092193;28;20053;-86
2024/01/10 12:43:26;;;;;;;36.55;18.85;;;;;;;;;;5104805;28;20035;-86
2024/01/10 12:46:11;;;;;;;38.92;19.92;;;;;;;;;;5086532;28;20034;-86
2024/01/10 12:49:04;;;;;;;38.15;18.80;;;;;;;;;;5089647;28;20126;-82
2024/01/10 12:51:50;;;;;;;29.75;17.20;;;;;;;;;;5081834;28;20476;-84
2024/01/10 12:54:35;;;;;;;36.45;20.10;;;;;;;;;;5101631;28;20043;-82
2024/01/10 12:57:20;;;;;;;35.17;18.70;;;;;;;;;;5083034;28;20040;-84
2024/01/10 13:00:06;;;;;;;31.30;18.67;;;;;;;;;;5083089;28;20043;-82
2024/01/10 13:02:51;;;;;;;31.35;18.92;;;;;;;;;;5088620;28;20061;-83
2024/01/10 13:05:37;;;;;;;34.63;19.05;;;;;;;;;;5086743;28;20027;-84
2024/01/10 13:08:22;;;;;;;35.25;19.23;;;;;;;;;;5079420;28;20032;-83
2024/01/10 13:11:09;;;;;;;35.28;19.42;;;;;;;;;;5081767;28;20028;-83
2024/01/10 13:13:54;;;;;;;34.92;19.00;;;;;;;;;;5101567;28;20019;-81
2024/01/10 13:16:39;;;;;;;31.65;17.27;;;;;;;;;;5087755;28;20073;-81
2024/01/10 13:19:24;;;;;;;35.45;20.77;;;;;;;;;;5086419;28;20036;-85
2024/01/10 13:22:10;;;;;;;36.40;20.63;;;;;;;;;;5087125;28;20038;-84
2024/01/10 13:24:55;;;;;;;34.65;19.35;;;;;;;;;;5091539;27;20043;-84
2024/01/10 13:27:40;;;;;;;35.47;19.27;;;;;;;;;;5084798;28;20054;-83
2024/01/10 13:30:26;;;;;;;33.35;18.73;;;;;;;;;;5083802;28;20022;-83
2024/01/10 13:33:11;;;;;;;33.45;18.42;;;;;;;;;;5086498;28;20031;-84
2024/01/10 13:35:57;;;;;;;33.35;17.80;;;;;;;;;;5092261;28;20466;-81
2024/01/10 13:38:42;;;;;;;38.20;19.35;;;;;;;;;;5086011;28;20035;-81
2024/01/10 13:41:27;;;;;;;36.55;19.70;;;;;;;;;;5076331;28;20020;-82
2024/01/10 13:44:12;;;;;;;34.85;19.05;;;;;;;;;;5089229;28;20485;-82
2024/01/10 13:46:58;;;;;;;34.97;18.45;;;;;;;;;;5088678;28;20037;-82
2024/01/10 13:49:43;;;;;;;29.77;18.13;;;;;;;;;;5083703;28;20024;-82
2024/01/10 13:52:28;;;;;;;32.95;18.20;;;;;;;;;;5080331;28;20024;-82
2024/01/10 13:55:14;;;;;;;32.47;18.13;;;;;;;;;;5081942;28;20342;-80
2024/01/10 13:57:59;;;;;;;37.95;19.15;;;;;;;;;;5100518;28;20035;-81
2024/01/10 14:00:44;;;;;;;34.03;17.98;;;;;;;;;;5082569;28;20084;-83
2024/01/10 14:03:29;;;;;;;33.30;18.17;;;;;;;;;;5086728;28;20028;-81
2024/01/10 14:06:15;;;;;;;35.42;18.25;;;;;;;;;;5090871;28;20062;-80
2024/01/10 14:09:00;;;;;;;29.90;15.77;;;;;;;;;;5089427;28;20038;-84
2024/01/10 14:11:46;;;;;;;28.98;16.80;;;;;;;;;;5087442;28;20300;-81
2024/01/10 14:14:34;;;;;;;30.95;15.95;;;;;;;;;;5083745;28;20536;-81
2024/01/10 14:17:22;;;;;;;27.58;15.30;;;;;;;;;;5081157;28;20471;-80
2024/01/10 14:20:08;;;;;;;30.48;17.77;;;;;;;;;;5083759;28;20028;-82
2024/01/10 14:22:54;;;;;;;34.30;17.42;;;;;;;;;;5081728;28;20027;-81
2024/01/10 14:25:39;;;;;;;32.28;18.20;;;;;;;;;;5083797;28;20115;-81
2024/01/10 14:28:24;;;;;;;31.33;17.58;;;;;;;;;;5085239;28;20080;-81
2024/01/10 14:31:13;;;;;;;30.88;17.65;;;;;;;;;;5080386;28;20021;-81
2024/01/10 14:33:58;;;;;;;34.00;19.40;;;;;;;;;;5077756;28;20398;-82
2024/01/10 14:36:44;;;;;;;32.20;20.33;;;;;;;;;;5087959;28;20028;-82
2024/01/10 14:39:29;;;;;;;31.73;18.40;;;;;;;;;;5082899;28;20024;-83
2024/01/10 14:42:14;;;;;;;35.75;18.60;;;;;;;;;;5086226;28;20389;-83
2024/01/10 14:45:00;;;;;;;30.30;17.15;;;;;;;;;;5079857;28;20020;-82
2024/01/10 14:47:45;;;;;;;36.90;18.92;;;;;;;;;;5081571;28;20669;-82
2024/01/10 14:50:30;;;;;;;33.33;17.20;;;;;;;;;;5082284;28;20425;-82
2024/01/10 14:53:16;;;;;;;35.33;17.20;;;;;;;;;;5085182;28;20027;-82
2024/01/10 14:56:01;;;;;;;36.25;19.02;;;;;;;;;;5075411;28;20019;-83
2024/01/10 14:58:47;;;;;;;31.15;16.90;;;;;;;;;;5080215;28;20131;-82
2024/01/10 15:01:32;;;;;;;35.55;17.05;;;;;;;;;;5080821;28;20028;-81
2024/01/10 15:04:18;;;;;;;33.80;18.40;;;;;;;;;;5101569;28;20019;-84
2024/01/10 15:07:03;;;;;;;38.13;18.85;;;;;;;;;;5092978;28;20019;-85
2024/01/10 15:09:48;;;;;;;35.60;18.92;;;;;;;;;;5078818;28;20073;-84
2024/01/10 15:12:33;;;;;;;33.13;17.85;;;;;;;;;;5083862;28;20050;-83
2024/01/10 15:15:19;;;;;;;34.90;19.08;;;;;;;;;;5093018;28;20029;-85
2024/01/10 15:18:04;;;;;;;35.30;17.83;;;;;;;;;;5085450;28;20031;-83
2024/01/10 15:20:50;;;;;;;32.75;17.40;;;;;;;;;;5089561;28;20020;-86
2024/01/10 15:23:35;;;;;;;40.50;19.20;;;;;;;;;;5067920;28;20032;-85
2024/01/10 15:26:21;;;;;;;37.28;19.00;;;;;;;;;;5096088;28;20402;-84
2024/01/10 15:29:07;;;;;;;34.55;19.67;;;;;;;;;;5090564;28;20035;-84
2024/01/10 15:31:52;;;;;;;37.33;20.08;;;;;;;;;;5082923;28;20090;-84
2024/01/10 15:34:38;;;;;;;37.33;18.90;;;;;;;;;;5091099;28;20024;-84
2024/01/10 15:37:23;;;;;;;33.13;18.60;;;;;;;;;;5084565;28;20030;-83
2024/01/10 15:40:12;;;;;;;35.72;18.23;;;;;;;;;;5081597;28;20027;-82
2024/01/10 15:42:57;;;;;;;35.10;18.38;;;;;;;;;;5085326;28;20036;-81
2024/01/10 15:45:42;;;;;;;38.70;20.42;;;;;;;;;;5081552;28;20027;-82
2024/01/10 15:48:28;;;;;;;47.60;22.40;;;;;;;;;;5099607;28;20024;-83
2024/01/10 15:51:13;;;;;;;40.83;20.25;;;;;;;;;;5084647;28;20055;-82
2024/01/10 15:53:59;;;;;;;38.28;19.98;;;;;;;;;;5081720;28;20406;-82
2024/01/10 15:56:45;;;;;;;36.47;19.33;;;;;;;;;;5085000;28;20079;-82
2024/01/10 15:59:30;;;;;;;37.10;18.65;;;;;;;;;;5083547;28;20074;-83
2024/01/10 16:02:15;;;;;;;33.90;18.50;;;;;;;;;;5087529;28;20047;-83
2024/01/10 16:05:00;;;;;;;40.03;20.95;;;;;;;;;;5078757;28;20639;-83
2024/01/10 16:07:45;;;;;;;34.17;18.48;;;;;;;;;;5088990;28;20077;-83
2024/01/10 16:10:31;;;;;;;40.67;19.48;;;;;;;;;;5077441;28;20024;-82